createdAt,value
2023-03-14T00:00:17.316Z,67.43
2023-03-14T00:02:44.749Z,69.92
2023-03-14T00:05:12.173Z,69.24
2023-03-14T00:07:40.603Z,70.38
2023-03-14T00:10:14.326Z,69.77
2023-03-14T00:12:42.501Z,69.88
2023-03-14T00:15:10.708Z,71.67
2023-03-14T00:17:38.266Z,70.76
2023-03-14T00:20:09.358Z,71.83
2023-03-14T00:22:37.055Z,72.32
2023-03-14T00:25:06.614Z,72.11
2023-03-14T00:27:34.174Z,71.38
2023-03-14T00:30:02.569Z,72.87
2023-03-14T00:32:30.067Z,72.71
2023-03-14T00:34:57.447Z,71.51
2023-03-14T00:37:24.810Z,72.41
2023-03-14T00:39:52.867Z,70.66
2023-03-14T00:42:20.391Z,72.21
2023-03-14T00:44:49.559Z,73.85
2023-03-14T00:47:17.070Z,73.23
2023-03-14T00:49:44.481Z,72.06
2023-03-14T00:52:12.792Z,72.72
2023-03-14T00:54:40.189Z,73.82
2023-03-14T00:57:07.433Z,73.05
2023-03-14T00:59:34.800Z,72.12
2023-03-14T01:02:02.355Z,72.03
2023-03-14T01:04:31.332Z,73.12
2023-03-14T01:06:58.922Z,73.15
2023-03-14T01:09:26.746Z,73.12
2023-03-14T01:11:54.190Z,74.27
2023-03-14T01:14:21.622Z,73.16
2023-03-14T01:16:49.134Z,75.17
2023-03-14T01:19:16.533Z,71.48
2023-03-14T01:21:43.995Z,71.60
2023-03-14T01:24:12.251Z,73.26
2023-03-14T01:26:39.524Z,75.16
2023-03-14T01:29:08.036Z,73.71
2023-03-14T01:31:38.080Z,70.82
2023-03-14T01:34:05.817Z,71.75
2023-03-14T01:36:33.241Z,73.99
2023-03-14T01:39:02.415Z,75.37
2023-03-14T01:41:30.243Z,74.89
2023-03-14T01:43:59.338Z,73.18
2023-03-14T01:46:47.058Z,75.44
2023-03-14T01:49:20.795Z,72.68
2023-03-14T01:52:07.057Z,74.16
2023-03-14T01:54:38.939Z,73.74
2023-03-14T01:57:15.502Z,73.00
2023-03-14T01:59:48.134Z,74.55
2023-03-14T02:02:16.641Z,75.13
2023-03-14T02:04:44.579Z,74.43
2023-03-14T02:07:20.300Z,74.45
2023-03-14T02:10:15.670Z,74.80
2023-03-14T02:12:43.768Z,76.03
2023-03-14T02:15:27.519Z,73.26
2023-03-14T02:18:00.897Z,74.66
2023-03-14T02:21:10.195Z,76.00
2023-03-14T02:23:58.837Z,77.38
2023-03-14T02:26:35.369Z,77.93
2023-03-14T02:29:03.019Z,77.11
2023-03-14T02:31:31.124Z,77.73
2023-03-14T02:33:58.948Z,76.13
2023-03-14T02:36:26.505Z,77.73
2023-03-14T02:39:04.332Z,77.97
2023-03-14T02:41:32.019Z,78.36
2023-03-14T02:44:02.751Z,76.93
2023-03-14T02:46:30.464Z,79.49
2023-03-14T02:49:06.412Z,76.88
2023-03-14T02:51:33.966Z,77.87
2023-03-14T02:54:01.952Z,80.59
2023-03-14T02:56:29.196Z,80.11
2023-03-14T02:58:58.781Z,79.21
2023-03-14T03:01:42.469Z,79.07
2023-03-14T03:04:09.881Z,78.13
2023-03-14T03:06:37.194Z,77.48
2023-03-14T03:09:04.497Z,79.38
2023-03-14T03:11:32.658Z,79.64
2023-03-14T03:14:00.193Z,78.52
2023-03-14T03:16:29.219Z,80.36
2023-03-14T03:18:59.202Z,79.06
2023-03-14T03:21:26.918Z,80.48
2023-03-14T03:23:54.237Z,81.56
2023-03-14T03:26:21.547Z,79.88
2023-03-14T03:28:51.847Z,81.33
2023-03-14T03:31:19.399Z,82.61
2023-03-14T03:33:47.998Z,83.70
2023-03-14T03:36:15.357Z,82.72
2023-03-14T03:38:42.740Z,80.44
2023-03-14T03:41:10.484Z,82.01
2023-03-14T03:43:38.249Z,82.47
2023-03-14T03:46:07.779Z,82.53
2023-03-14T03:48:35.824Z,81.91
2023-03-14T03:51:05.450Z,84.48
2023-03-14T03:53:34.262Z,82.55
2023-03-14T03:56:10.085Z,80.94
2023-03-14T03:58:39.824Z,81.00
2023-03-14T04:01:08.015Z,81.58
2023-03-14T04:03:36.660Z,83.17
2023-03-14T04:06:07.127Z,80.03
2023-03-14T04:08:37.372Z,79.75
2023-03-14T04:11:05.050Z,79.60
2023-03-14T04:13:58.235Z,81.17
2023-03-14T04:16:26.486Z,80.21
2023-03-14T04:19:00.045Z,79.29
2023-03-14T04:21:27.941Z,80.29
2023-03-14T04:23:57.890Z,83.38
2023-03-14T04:26:27.861Z,84.58
2023-03-14T04:28:55.232Z,82.88
2023-03-14T04:31:23.676Z,86.14
2023-03-14T04:33:52.395Z,84.31
2023-03-14T04:36:26.745Z,86.64
2023-03-14T04:38:54.490Z,87.37
2023-03-14T04:41:22.637Z,88.55
2023-03-14T04:43:50.034Z,86.76
2023-03-14T04:46:17.457Z,86.41
2023-03-14T04:48:45.231Z,87.95
2023-03-14T04:51:13.121Z,85.65
2023-03-14T04:53:43.942Z,85.63
2023-03-14T04:56:13.975Z,88.82
2023-03-14T04:58:43.503Z,89.44
2023-03-14T05:01:11.477Z,90.01
2023-03-14T05:04:02.256Z,89.84
2023-03-14T05:06:55.924Z,86.92
2023-03-14T05:09:47.196Z,83.51
2023-03-14T05:12:32.813Z,84.74
2023-03-14T05:15:20.040Z,84.97
2023-03-14T05:18:23.112Z,79.67
2023-03-14T05:20:58.528Z,81.56
2023-03-14T05:23:44.113Z,80.32
2023-03-14T05:26:31.599Z,82.05
2023-03-14T05:29:18.402Z,82.69
2023-03-14T05:31:57.193Z,87.93
2023-03-14T05:34:38.330Z,82.23
2023-03-14T05:37:26.917Z,80.79
2023-03-14T05:40:07.299Z,75.59
2023-03-14T05:42:57.398Z,79.82
2023-03-14T05:45:38.316Z,78.63
2023-03-14T05:48:22.746Z,81.52
2023-03-14T05:51:10.430Z,81.15
2023-03-14T05:53:58.196Z,75.57
2023-03-14T05:56:42.974Z,83.11
2023-03-14T05:59:33.249Z,72.75
2023-03-14T06:02:06.611Z,77.60
2023-03-14T06:04:44.632Z,73.14
2023-03-14T06:07:11.897Z,74.74
2023-03-14T06:09:40.595Z,77.15
2023-03-14T06:12:08.070Z,68.82
2023-03-14T06:14:40.999Z,68.48
2023-03-14T06:17:09.271Z,69.81
2023-03-14T06:19:43.975Z,68.74
2023-03-14T06:22:13.598Z,69.18
2023-03-14T06:24:41.693Z,73.03
2023-03-14T06:27:09.077Z,74.48
2023-03-14T06:29:36.633Z,71.40
2023-03-14T06:32:05.531Z,72.24
2023-03-14T06:34:32.747Z,73.15
2023-03-14T06:36:59.948Z,67.52
2023-03-14T06:39:27.945Z,70.21
2023-03-14T06:42:03.733Z,68.32
2023-03-14T06:44:31.175Z,73.22
2023-03-14T06:46:58.712Z,72.13
2023-03-14T06:49:26.083Z,71.35
2023-03-14T06:51:55.722Z,69.93
2023-03-14T06:54:23.039Z,67.51
2023-03-14T06:56:50.273Z,67.89
2023-03-14T06:59:17.888Z,78.63
2023-03-14T07:01:49.294Z,67.68
2023-03-14T07:04:16.661Z,83.20
2023-03-14T07:06:48.644Z,67.10
2023-03-14T07:09:18.166Z,70.84
2023-03-14T07:11:51.323Z,72.94
2023-03-14T07:14:20.338Z,70.44
2023-03-14T07:16:48.206Z,73.24
2023-03-14T07:19:15.551Z,69.30
2023-03-14T07:21:42.881Z,64.98
2023-03-14T07:24:13.954Z,67.16
2023-03-14T07:26:41.378Z,69.76
2023-03-14T07:29:08.774Z,65.59
2023-03-14T07:31:36.071Z,66.69
2023-03-14T07:34:04.037Z,70.84
2023-03-14T07:36:35.809Z,65.76
2023-03-14T07:39:05.223Z,79.81
2023-03-14T07:41:41.677Z,61.26
2023-03-14T07:44:27.730Z,64.93
2023-03-14T07:46:55.291Z,65.25
2023-03-14T07:49:22.652Z,64.06
2023-03-14T07:51:49.939Z,63.55
2023-03-14T07:54:18.731Z,61.40
2023-03-14T07:56:47.365Z,62.80
2023-03-14T07:59:14.581Z,63.56
2023-03-14T08:01:41.961Z,63.91
2023-03-14T08:04:09.606Z,64.78
2023-03-14T08:06:37.708Z,63.69
2023-03-14T08:09:05.670Z,62.55
2023-03-14T08:11:32.896Z,63.81
2023-03-14T08:14:00.285Z,64.80
2023-03-14T08:16:27.546Z,64.85
2023-03-14T08:18:54.751Z,65.64
2023-03-14T08:21:22.010Z,64.91
2023-03-14T08:23:49.319Z,65.62
2023-03-14T08:26:16.789Z,64.52
2023-03-14T08:28:44.050Z,64.07
2023-03-14T08:31:11.537Z,65.93
2023-03-14T08:33:38.901Z,65.54
2023-03-14T08:36:06.626Z,63.93
2023-03-14T08:38:33.885Z,65.18
2023-03-14T08:41:02.775Z,64.98
2023-03-14T08:43:30.428Z,66.06
2023-03-14T08:46:01.496Z,65.89
2023-03-14T08:48:30.755Z,66.72
2023-03-14T08:51:09.260Z,65.32
2023-03-14T08:53:36.640Z,65.14
2023-03-14T08:56:06.656Z,63.87
2023-03-14T08:58:34.101Z,65.48
2023-03-14T09:01:01.385Z,63.76
2023-03-14T09:03:29.702Z,64.17
2023-03-14T09:05:57.085Z,65.79
2023-03-14T09:08:24.326Z,63.59
2023-03-14T09:10:51.551Z,62.48
2023-03-14T09:13:18.799Z,62.22
2023-03-14T09:15:46.032Z,60.97
2023-03-14T09:18:13.726Z,61.60
2023-03-14T09:20:41.353Z,63.43
2023-03-14T09:23:08.607Z,62.15
2023-03-14T09:25:35.936Z,70.19
2023-03-14T09:28:03.503Z,61.60
2023-03-14T09:30:30.800Z,62.85
2023-03-14T09:32:58.702Z,62.37
2023-03-14T09:35:26.415Z,62.12
2023-03-14T09:37:53.723Z,64.39
2023-03-14T09:40:21.480Z,67.12
2023-03-14T09:42:52.886Z,72.94
2023-03-14T09:45:27.876Z,77.76
2023-03-14T09:47:59.735Z,77.24
2023-03-14T09:50:32.441Z,75.81
2023-03-14T09:53:03.785Z,75.43
2023-03-14T09:55:33.266Z,72.58
2023-03-14T09:58:06.754Z,68.29
2023-03-14T10:00:34.255Z,67.69
2023-03-14T10:03:21.592Z,72.02
2023-03-14T10:05:48.999Z,75.55
2023-03-14T10:08:16.353Z,77.23
2023-03-14T10:10:43.837Z,77.32
2023-03-14T10:13:11.064Z,76.93
2023-03-14T10:15:39.008Z,79.10
2023-03-14T10:18:13.777Z,81.09
2023-03-14T10:20:45.925Z,77.50
2023-03-14T10:23:13.199Z,76.95
2023-03-14T10:25:47.402Z,75.07
2023-03-14T10:28:43.537Z,74.50
2023-03-14T10:31:11.070Z,73.52
2023-03-14T10:33:39.244Z,73.64
2023-03-14T10:36:20.568Z,72.66
2023-03-14T10:38:49.331Z,70.54
2023-03-14T10:41:27.549Z,70.89
2023-03-14T10:43:58.496Z,70.54
2023-03-14T10:46:27.395Z,71.47
2023-03-14T10:49:29.406Z,67.96
2023-03-14T10:51:56.781Z,69.72
2023-03-14T10:54:26.998Z,69.86
2023-03-14T10:56:59.103Z,70.76
2023-03-14T10:59:29.263Z,71.48
2023-03-14T11:02:00.824Z,69.97
2023-03-14T11:04:43.425Z,68.46
2023-03-14T11:07:30.487Z,64.59
2023-03-14T11:10:25.309Z,66.87
2023-03-14T11:13:13.005Z,64.87
2023-03-14T11:15:43.099Z,63.56
2023-03-14T11:18:29.166Z,62.04
2023-03-14T11:21:05.785Z,60.12
2023-03-14T11:24:04.028Z,59.38
2023-03-14T11:26:35.348Z,60.83
2023-03-14T11:29:22.931Z,57.85
2023-03-14T11:31:50.285Z,58.73
2023-03-14T11:34:28.952Z,55.38
2023-03-14T11:37:06.496Z,55.91
2023-03-14T11:39:40.991Z,54.14
2023-03-14T11:42:13.943Z,50.42
2023-03-14T11:44:41.960Z,50.03
2023-03-14T11:47:11.437Z,50.32
2023-03-14T11:50:05.281Z,49.86
2023-03-14T11:52:37.004Z,48.48
2023-03-14T11:55:31.992Z,48.23
2023-03-14T11:58:20.876Z,48.21
2023-03-14T12:00:50.415Z,47.15
2023-03-14T12:03:36.649Z,46.34
2023-03-14T12:06:10.813Z,46.12
2023-03-14T12:08:44.638Z,45.82
2023-03-14T12:11:14.341Z,45.27
2023-03-14T12:13:42.527Z,44.73
2023-03-14T12:16:25.303Z,45.15
2023-03-14T12:18:53.509Z,44.80
2023-03-14T12:21:21.194Z,44.83
2023-03-14T12:23:56.278Z,44.83
2023-03-14T12:26:23.523Z,43.99
2023-03-14T12:29:00.248Z,47.29
2023-03-14T12:31:33.386Z,44.20
2023-03-14T12:34:12.552Z,44.74
2023-03-14T12:36:51.975Z,45.16
2023-03-14T12:39:26.310Z,44.97
2023-03-14T12:42:02.271Z,44.20
2023-03-14T12:44:33.216Z,44.01
2023-03-14T12:47:01.528Z,46.45
2023-03-14T12:49:38.976Z,44.40
2023-03-14T12:52:14.697Z,45.75
2023-03-14T12:54:49.271Z,46.65
2023-03-14T12:57:50.780Z,47.13
2023-03-14T13:00:19.275Z,46.99
2023-03-14T13:02:49.369Z,47.36
2023-03-14T13:05:26.199Z,47.25
2023-03-14T13:07:56.620Z,49.65
2023-03-14T13:10:24.410Z,46.54
2023-03-14T13:13:10.940Z,47.75
2023-03-14T13:15:43.698Z,47.62
2023-03-14T13:18:16.777Z,48.38
2023-03-14T13:20:51.564Z,48.87
2023-03-14T13:23:27.513Z,47.79
2023-03-14T13:25:55.402Z,48.06
2023-03-14T13:28:22.963Z,48.56
2023-03-14T13:30:52.272Z,49.60
2023-03-14T13:33:22.303Z,50.47
2023-03-14T13:35:56.700Z,50.38
2023-03-14T13:38:28.767Z,50.23
2023-03-14T13:41:01.423Z,63.07
2023-03-14T13:43:33.904Z,69.13
2023-03-14T13:46:15.214Z,77.20
2023-03-14T13:48:51.243Z,83.26
2023-03-14T13:51:20.174Z,85.40
2023-03-14T13:53:50.200Z,84.86
2023-03-14T13:56:19.023Z,83.92
2023-03-14T13:58:47.337Z,84.09
2023-03-14T14:01:25.730Z,83.28
2023-03-14T14:03:54.771Z,83.17
2023-03-14T14:06:29.416Z,78.75
2023-03-14T14:08:58.240Z,77.13
2023-03-14T14:11:48.485Z,77.14
2023-03-14T14:14:50.582Z,73.83
2023-03-14T14:17:21.911Z,73.03
2023-03-14T14:19:49.621Z,72.04
2023-03-14T14:22:17.681Z,70.71
2023-03-14T14:24:45.117Z,70.62
2023-03-14T14:27:19.151Z,71.65
2023-03-14T14:30:04.853Z,70.04
2023-03-14T14:32:38.638Z,70.60
2023-03-14T14:35:07.409Z,69.82
2023-03-14T14:37:36.355Z,69.92
2023-03-14T14:40:15.928Z,70.63
2023-03-14T14:42:43.537Z,69.67
2023-03-14T14:45:24.861Z,69.16
2023-03-14T14:47:54.621Z,69.35
2023-03-14T14:50:30.370Z,69.18
2023-03-14T14:52:59.613Z,69.12
2023-03-14T14:55:44.715Z,69.41
2023-03-14T14:58:22.840Z,70.05
2023-03-14T15:01:04.931Z,70.99
2023-03-14T15:03:33.839Z,71.09
2023-03-14T15:06:02.743Z,72.27
2023-03-14T15:08:30.501Z,72.71
2023-03-14T15:10:58.235Z,73.96
2023-03-14T15:13:30.642Z,75.91
2023-03-14T15:15:58.504Z,74.50
2023-03-14T15:18:30.808Z,74.18
2023-03-14T15:20:58.374Z,74.72
2023-03-14T15:23:28.162Z,72.75
2023-03-14T15:25:56.707Z,72.67
2023-03-14T15:28:29.400Z,72.05
2023-03-14T15:30:58.864Z,71.81
2023-03-14T15:33:27.282Z,70.57
2023-03-14T15:35:54.816Z,69.88
2023-03-14T15:38:24.171Z,70.20
2023-03-14T15:40:52.509Z,70.13
2023-03-14T15:43:20.795Z,68.87
2023-03-14T15:45:48.560Z,69.46
2023-03-14T15:48:17.963Z,69.28
2023-03-14T15:50:45.332Z,69.56
2023-03-14T15:53:13.314Z,68.47
2023-03-14T15:55:40.567Z,67.00
2023-03-14T15:58:15.646Z,67.11
2023-03-14T16:00:43.148Z,67.24
2023-03-14T16:03:11.899Z,67.25
2023-03-14T16:05:40.118Z,67.11
2023-03-14T16:08:07.829Z,67.54
2023-03-14T16:10:35.334Z,66.48
2023-03-14T16:13:03.442Z,67.37
2023-03-14T16:15:31.025Z,67.32
2023-03-14T16:17:59.714Z,67.59
2023-03-14T16:20:38.661Z,66.59
2023-03-14T16:23:13.008Z,65.21
2023-03-14T16:25:40.365Z,64.24
2023-03-14T16:28:11.217Z,65.64
2023-03-14T16:30:40.272Z,67.01
2023-03-14T16:33:12.292Z,66.09
2023-03-14T16:35:40.938Z,67.28
2023-03-14T16:38:08.512Z,66.83
2023-03-14T16:40:35.949Z,67.12
2023-03-14T16:45:51.870Z,66.58
2023-03-14T16:48:19.482Z,66.19
2023-03-14T16:50:46.807Z,66.43
2023-03-14T16:53:14.374Z,63.51
2023-03-14T16:55:43.028Z,63.28
2023-03-14T16:58:10.724Z,62.61
2023-03-14T17:00:40.072Z,63.38
2023-03-14T17:03:07.893Z,63.92
2023-03-14T17:05:35.811Z,63.79
2023-03-14T17:08:03.200Z,64.33
2023-03-14T17:10:30.530Z,63.53
2023-03-14T17:12:58.174Z,63.68
2023-03-14T17:15:25.576Z,63.63
2023-03-14T17:17:52.880Z,63.21
2023-03-14T17:20:20.163Z,63.68
2023-03-14T17:22:47.394Z,63.53
2023-03-14T17:25:14.658Z,63.67
2023-03-14T17:27:43.489Z,63.54
2023-03-14T17:30:12.779Z,63.20
2023-03-14T17:32:40.142Z,62.92
2023-03-14T17:35:07.869Z,62.91
2023-03-14T17:37:35.900Z,62.56
2023-03-14T17:40:04.433Z,61.78
2023-03-14T17:42:31.717Z,62.60
2023-03-14T17:44:59.148Z,62.85
2023-03-14T17:47:26.706Z,63.35
2023-03-14T17:49:54.107Z,63.43
2023-03-14T17:52:21.335Z,63.35
2023-03-14T17:54:48.849Z,63.75
2023-03-14T17:57:16.115Z,64.33
2023-03-14T17:59:43.434Z,64.58
2023-03-14T18:02:11.574Z,65.32
2023-03-14T18:04:39.101Z,65.48
2023-03-14T18:07:09.000Z,66.21
2023-03-14T18:09:37.369Z,66.66
2023-03-14T18:12:08.318Z,67.11
2023-03-14T18:14:36.596Z,67.29
2023-03-14T18:17:04.921Z,67.99
2023-03-14T18:19:32.584Z,66.97
2023-03-14T18:21:59.931Z,65.96
2023-03-14T18:24:28.770Z,65.24
2023-03-14T18:26:56.506Z,65.78
2023-03-14T18:29:23.997Z,66.07
2023-03-14T18:31:51.407Z,67.16
2023-03-14T18:34:18.980Z,67.37
2023-03-14T18:36:46.514Z,67.17
2023-03-14T18:39:13.880Z,66.78
2023-03-14T18:41:41.459Z,66.67
2023-03-14T18:44:09.645Z,66.53
2023-03-14T18:46:37.280Z,66.20
2023-03-14T18:49:04.596Z,67.02
2023-03-14T18:51:33.897Z,67.50
2023-03-14T18:54:10.232Z,67.15
2023-03-14T18:56:41.562Z,67.30
2023-03-14T18:59:09.602Z,66.38
2023-03-14T19:01:37.900Z,65.60
2023-03-14T19:04:05.712Z,66.52
2023-03-14T19:06:33.362Z,66.72
2023-03-14T19:09:01.883Z,66.44
2023-03-14T19:11:29.223Z,67.41
2023-03-14T19:13:57.067Z,66.58
2023-03-14T19:16:24.853Z,66.10
2023-03-14T19:18:52.468Z,66.00
2023-03-14T19:21:32.731Z,65.94
2023-03-14T19:24:01.427Z,66.57
2023-03-14T19:26:38.331Z,65.77
2023-03-14T19:29:06.296Z,65.78
2023-03-14T19:31:33.708Z,65.81
2023-03-14T19:34:01.360Z,65.29
2023-03-14T19:36:31.449Z,66.80
2023-03-14T19:39:01.830Z,66.34
2023-03-14T19:41:29.537Z,66.11
2023-03-14T19:43:57.110Z,66.25
2023-03-14T19:46:25.262Z,66.44
2023-03-14T19:48:56.116Z,67.11
2023-03-14T19:51:24.032Z,67.22
2023-03-14T19:53:52.240Z,67.44
2023-03-14T19:56:20.819Z,67.09
2023-03-14T19:58:48.348Z,68.30
2023-03-14T20:01:15.784Z,68.97
2023-03-14T20:03:43.022Z,68.63
2023-03-14T20:06:12.376Z,68.29
2023-03-14T20:08:40.953Z,68.71
2023-03-14T20:11:08.932Z,68.39
2023-03-14T20:13:36.812Z,68.86
2023-03-14T20:16:05.755Z,67.82
2023-03-14T20:18:33.180Z,66.83
2023-03-14T20:21:00.481Z,66.71
2023-03-14T20:23:27.789Z,67.01
2023-03-14T20:25:59.430Z,64.97
2023-03-14T20:28:26.755Z,65.28
2023-03-14T20:30:54.180Z,64.14
2023-03-14T20:33:22.005Z,63.92
2023-03-14T20:35:59.898Z,64.84
2023-03-14T20:38:28.065Z,65.53
2023-03-14T20:40:59.430Z,65.46
2023-03-14T20:43:27.431Z,65.64
2023-03-14T20:45:56.075Z,65.11
2023-03-14T20:48:24.110Z,65.45
2023-03-14T20:50:51.923Z,65.17
2023-03-14T20:53:19.863Z,65.34
2023-03-14T20:55:47.567Z,66.62
2023-03-14T20:58:15.309Z,66.38
2023-03-14T21:00:48.274Z,66.39
2023-03-14T21:03:17.090Z,66.20
2023-03-14T21:05:46.769Z,65.40
2023-03-14T21:08:15.477Z,66.19
2023-03-14T21:10:42.753Z,65.99
2023-03-14T21:13:11.142Z,65.08
2023-03-14T21:15:38.543Z,65.38
2023-03-14T21:18:05.931Z,65.34
2023-03-14T21:20:34.350Z,65.39
2023-03-14T21:23:01.611Z,65.41
2023-03-14T21:25:29.124Z,66.73
2023-03-14T21:27:56.718Z,66.03
2023-03-14T21:30:25.140Z,66.53
2023-03-14T21:32:52.679Z,66.68
2023-03-14T21:35:21.444Z,65.83
2023-03-14T21:37:49.178Z,65.71
2023-03-14T21:40:16.485Z,65.96
2023-03-14T21:42:43.689Z,66.17
2023-03-14T21:45:12.480Z,66.68
2023-03-14T21:47:39.713Z,66.16
2023-03-14T21:50:07.303Z,65.64
2023-03-14T21:52:34.421Z,66.58
2023-03-14T21:55:03.619Z,66.90
2023-03-14T21:57:30.974Z,67.66
2023-03-14T21:59:58.178Z,67.12
2023-03-14T22:02:25.547Z,67.11
2023-03-14T22:04:54.635Z,68.43
2023-03-14T22:07:21.833Z,68.96
2023-03-14T22:09:49.165Z,68.66
2023-03-14T22:12:19.388Z,68.88
2023-03-14T22:14:47.807Z,68.76
2023-03-14T22:17:15.400Z,69.19
2023-03-14T22:19:42.646Z,69.60
2023-03-14T22:22:09.854Z,69.60
2023-03-14T22:24:37.051Z,69.48
2023-03-14T22:27:04.363Z,69.08
2023-03-14T22:29:31.529Z,68.93
2023-03-14T22:31:58.694Z,69.88
2023-03-14T22:34:31.405Z,70.25
2023-03-14T22:37:01.029Z,70.25
2023-03-14T22:39:28.539Z,70.28
2023-03-14T22:41:56.352Z,70.49
2023-03-14T22:44:24.758Z,70.03
2023-03-14T22:46:52.121Z,70.55
2023-03-14T22:49:19.385Z,71.07
2023-03-14T22:51:46.523Z,71.26
2023-03-14T22:54:13.699Z,71.65
2023-03-14T22:56:40.912Z,71.36
2023-03-14T22:59:09.230Z,71.70
2023-03-14T23:01:36.395Z,72.62
2023-03-14T23:04:03.587Z,71.74
2023-03-14T23:06:31.077Z,71.01
2023-03-14T23:08:58.211Z,72.16
2023-03-14T23:11:26.268Z,72.29
2023-03-14T23:13:53.728Z,71.73
2023-03-14T23:16:25.180Z,71.16
2023-03-14T23:18:57.637Z,71.69
2023-03-14T23:21:24.836Z,71.20
2023-03-14T23:23:52.263Z,72.09
2023-03-14T23:26:22.475Z,71.21
2023-03-14T23:28:50.619Z,71.23
2023-03-14T23:31:18.482Z,71.43
2023-03-14T23:33:45.861Z,71.45
2023-03-14T23:36:14.549Z,71.84
2023-03-14T23:38:42.769Z,72.14
2023-03-14T23:41:14.379Z,72.48
2023-03-14T23:43:43.084Z,73.34
2023-03-14T23:46:11.008Z,73.16
2023-03-14T23:48:38.517Z,72.98
2023-03-14T23:51:07.593Z,72.93
2023-03-14T23:53:35.129Z,72.32
2023-03-14T23:56:02.542Z,72.07
2023-03-14T23:58:35.904Z,72.65
